Terminal Aerodrome Forecast
Issued by NWS

Home | Current Version | Previous Version | Text Only | Print | Product List | Glossary On
Versions: 1 2 3 4 5 6 7 8 9 10 11 12 13 14 15
000
FTUS46 KPDT 211100
TAFDLS
TAF
KDLS 211120Z 2112/2212 31011KT P6SM SKC
     FM211500 32014G20KT P6SM SCT250
     FM211800 32015G25KT P6SM BKN250
     FM220400 31010KT P6SM SKC=

USA.gov is the U.S. government's official web portal to all federal, state and local government web resources and services.